sensor_id;sensor_type;location;lat;lon;timestamp;temperature;humidity
10812;DHT22;5458;51.496;7.334;2023-04-25T00:02:03;8.80;99.90
10812;DHT22;5458;51.496;7.334;2023-04-25T00:04:29;8.90;99.90
10812;DHT22;5458;51.496;7.334;2023-04-25T00:06:55;8.90;99.90
10812;DHT22;5458;51.496;7.334;2023-04-25T00:09:21;8.90;99.90
10812;DHT22;5458;51.496;7.334;2023-04-25T00:11:47;9.00;99.90
10812;DHT22;5458;51.496;7.334;2023-04-25T00:14:13;9.00;99.90
10812;DHT22;5458;51.496;7.334;2023-04-25T00:16:39;9.00;99.90
10812;DHT22;5458;51.496;7.334;2023-04-25T00:19:06;9.10;99.90
10812;DHT22;5458;51.496;7.334;2023-04-25T00:21:33;9.10;99.90
10812;DHT22;5458;51.496;7.334;2023-04-25T00:23:59;9.00;99.90
10812;DHT22;5458;51.496;7.334;2023-04-25T00:26:25;9.10;99.90
10812;DHT22;5458;51.496;7.334;2023-04-25T00:28:51;9.00;99.90
10812;DHT22;5458;51.496;7.334;2023-04-25T00:31:17;9.10;99.90
10812;DHT22;5458;51.496;7.334;2023-04-25T00:33:42;9.00;99.90
10812;DHT22;5458;51.496;7.334;2023-04-25T00:36:09;8.90;99.90
10812;DHT22;5458;51.496;7.334;2023-04-25T00:38:35;8.80;99.90
10812;DHT22;5458;51.496;7.334;2023-04-25T00:41:01;8.80;99.90
10812;DHT22;5458;51.496;7.334;2023-04-25T00:43:27;8.80;99.90
10812;DHT22;5458;51.496;7.334;2023-04-25T00:45:53;8.90;99.90
10812;DHT22;5458;51.496;7.334;2023-04-25T00:48:21;8.90;99.90
10812;DHT22;5458;51.496;7.334;2023-04-25T00:50:53;8.90;99.90
10812;DHT22;5458;51.496;7.334;2023-04-25T00:53:23;8.90;99.90
10812;DHT22;5458;51.496;7.334;2023-04-25T00:55:49;8.90;99.90
10812;DHT22;5458;51.496;7.334;2023-04-25T00:58:17;8.90;99.90
10812;DHT22;5458;51.496;7.334;2023-04-25T01:00:45;8.90;99.90
10812;DHT22;5458;51.496;7.334;2023-04-25T01:03:11;9.00;99.90
10812;DHT22;5458;51.496;7.334;2023-04-25T01:05:37;9.00;99.90
10812;DHT22;5458;51.496;7.334;2023-04-25T01:08:02;9.00;99.90
10812;DHT22;5458;51.496;7.334;2023-04-25T01:10:28;9.00;99.90
10812;DHT22;5458;51.496;7.334;2023-04-25T01:12:54;8.90;99.90
10812;DHT22;5458;51.496;7.334;2023-04-25T01:15:20;9.00;99.90
10812;DHT22;5458;51.496;7.334;2023-04-25T01:17:45;8.90;99.90
10812;DHT22;5458;51.496;7.334;2023-04-25T01:20:12;8.90;99.90
10812;DHT22;5458;51.496;7.334;2023-04-25T01:22:39;9.00;99.90
10812;DHT22;5458;51.496;7.334;2023-04-25T01:25:06;9.00;99.90
10812;DHT22;5458;51.496;7.334;2023-04-25T01:27:32;9.00;99.90
10812;DHT22;5458;51.496;7.334;2023-04-25T01:29:58;9.00;99.90
10812;DHT22;5458;51.496;7.334;2023-04-25T01:32:25;9.00;99.90
10812;DHT22;5458;51.496;7.334;2023-04-25T01:34:51;9.00;99.90
10812;DHT22;5458;51.496;7.334;2023-04-25T01:37:17;9.00;99.90
10812;DHT22;5458;51.496;7.334;2023-04-25T01:39:43;9.10;99.90
10812;DHT22;5458;51.496;7.334;2023-04-25T01:42:09;9.10;99.90
10812;DHT22;5458;51.496;7.334;2023-04-25T01:44:35;9.10;99.90
10812;DHT22;5458;51.496;7.334;2023-04-25T01:47:00;9.10;99.90
10812;DHT22;5458;51.496;7.334;2023-04-25T01:49:26;9.00;99.90
10812;DHT22;5458;51.496;7.334;2023-04-25T01:51:52;9.00;99.90
10812;DHT22;5458;51.496;7.334;2023-04-25T01:54:18;9.00;99.90
10812;DHT22;5458;51.496;7.334;2023-04-25T01:56:50;9.00;99.90
10812;DHT22;5458;51.496;7.334;2023-04-25T01:59:17;9.00;99.90
10812;DHT22;5458;51.496;7.334;2023-04-25T02:01:43;9.00;99.90
10812;DHT22;5458;51.496;7.334;2023-04-25T02:04:09;9.00;99.90
10812;DHT22;5458;51.496;7.334;2023-04-25T02:06:34;9.00;99.90
10812;DHT22;5458;51.496;7.334;2023-04-25T02:09:00;9.00;99.90
10812;DHT22;5458;51.496;7.334;2023-04-25T02:11:25;9.00;99.90
10812;DHT22;5458;51.496;7.334;2023-04-25T02:13:51;9.00;99.90
10812;DHT22;5458;51.496;7.334;2023-04-25T02:16:17;9.00;99.90
10812;DHT22;5458;51.496;7.334;2023-04-25T02:18:44;9.00;99.90
10812;DHT22;5458;51.496;7.334;2023-04-25T02:21:10;9.00;99.90
10812;DHT22;5458;51.496;7.334;2023-04-25T02:23:37;9.00;99.90
10812;DHT22;5458;51.496;7.334;2023-04-25T02:26:03;9.00;99.90
10812;DHT22;5458;51.496;7.334;2023-04-25T02:28:28;9.00;99.90
10812;DHT22;5458;51.496;7.334;2023-04-25T02:30:54;9.00;99.90
10812;DHT22;5458;51.496;7.334;2023-04-25T02:33:20;9.00;99.90
10812;DHT22;5458;51.496;7.334;2023-04-25T02:35:46;9.10;99.90
10812;DHT22;5458;51.496;7.334;2023-04-25T02:38:12;8.90;99.90
10812;DHT22;5458;51.496;7.334;2023-04-25T02:40:37;8.90;99.90
10812;DHT22;5458;51.496;7.334;2023-04-25T02:43:03;8.90;99.90
10812;DHT22;5458;51.496;7.334;2023-04-25T02:45:28;8.90;99.90
10812;DHT22;5458;51.496;7.334;2023-04-25T02:47:54;8.80;99.90
10812;DHT22;5458;51.496;7.334;2023-04-25T02:50:20;8.80;99.90
10812;DHT22;5458;51.496;7.334;2023-04-25T02:52:45;8.80;99.90
10812;DHT22;5458;51.496;7.334;2023-04-25T02:55:12;8.80;99.90
10812;DHT22;5458;51.496;7.334;2023-04-25T02:57:38;8.80;99.90
10812;DHT22;5458;51.496;7.334;2023-04-25T03:00:04;8.80;99.90
10812;DHT22;5458;51.496;7.334;2023-04-25T03:02:30;8.70;99.90
10812;DHT22;5458;51.496;7.334;2023-04-25T03:04:56;8.70;99.90
10812;DHT22;5458;51.496;7.334;2023-04-25T03:07:22;8.70;99.90
10812;DHT22;5458;51.496;7.334;2023-04-25T03:09:47;8.70;99.90
10812;DHT22;5458;51.496;7.334;2023-04-25T03:12:13;8.70;99.90
10812;DHT22;5458;51.496;7.334;2023-04-25T03:14:38;8.70;99.90
10812;DHT22;5458;51.496;7.334;2023-04-25T03:17:04;8.60;99.90
10812;DHT22;5458;51.496;7.334;2023-04-25T03:19:30;8.50;99.90
10812;DHT22;5458;51.496;7.334;2023-04-25T03:21:55;8.50;99.90
10812;DHT22;5458;51.496;7.334;2023-04-25T03:24:21;8.50;99.90
10812;DHT22;5458;51.496;7.334;2023-04-25T03:26:47;8.60;99.90
10812;DHT22;5458;51.496;7.334;2023-04-25T03:29:12;8.50;99.90
10812;DHT22;5458;51.496;7.334;2023-04-25T03:31:38;8.60;99.90
10812;DHT22;5458;51.496;7.334;2023-04-25T03:34:04;8.60;99.90
10812;DHT22;5458;51.496;7.334;2023-04-25T03:36:29;8.60;99.90
10812;DHT22;5458;51.496;7.334;2023-04-25T03:38:55;8.60;99.90
10812;DHT22;5458;51.496;7.334;2023-04-25T03:41:21;8.60;99.90
10812;DHT22;5458;51.496;7.334;2023-04-25T03:43:47;8.70;99.90
10812;DHT22;5458;51.496;7.334;2023-04-25T03:46:12;8.60;99.90
10812;DHT22;5458;51.496;7.334;2023-04-25T03:48:38;8.70;99.90
10812;DHT22;5458;51.496;7.334;2023-04-25T03:51:03;8.70;99.90
10812;DHT22;5458;51.496;7.334;2023-04-25T03:53:29;8.70;99.90
10812;DHT22;5458;51.496;7.334;2023-04-25T03:55:55;8.70;99.90
10812;DHT22;5458;51.496;7.334;2023-04-25T03:58:20;8.70;99.90
10812;DHT22;5458;51.496;7.334;2023-04-25T04:00:46;8.70;99.90
10812;DHT22;5458;51.496;7.334;2023-04-25T04:03:11;8.70;99.90
10812;DHT22;5458;51.496;7.334;2023-04-25T04:05:37;8.70;99.90
10812;DHT22;5458;51.496;7.334;2023-04-25T04:08:06;8.70;99.90
10812;DHT22;5458;51.496;7.334;2023-04-25T04:10:31;8.80;99.90
10812;DHT22;5458;51.496;7.334;2023-04-25T04:12:57;8.70;99.90
10812;DHT22;5458;51.496;7.334;2023-04-25T04:15:30;8.60;99.90
10812;DHT22;5458;51.496;7.334;2023-04-25T04:17:58;8.30;99.90
10812;DHT22;5458;51.496;7.334;2023-04-25T04:20:28;8.10;99.90
10812;DHT22;5458;51.496;7.334;2023-04-25T04:22:54;8.10;99.90
10812;DHT22;5458;51.496;7.334;2023-04-25T04:25:19;8.10;99.90
10812;DHT22;5458;51.496;7.334;2023-04-25T04:27:45;8.10;99.90
10812;DHT22;5458;51.496;7.334;2023-04-25T04:30:11;8.10;99.90
10812;DHT22;5458;51.496;7.334;2023-04-25T04:32:37;8.10;99.90
10812;DHT22;5458;51.496;7.334;2023-04-25T04:35:04;8.10;99.90
10812;DHT22;5458;51.496;7.334;2023-04-25T04:37:30;8.10;99.90
10812;DHT22;5458;51.496;7.334;2023-04-25T04:39:55;8.10;99.90
10812;DHT22;5458;51.496;7.334;2023-04-25T04:42:21;8.20;99.90
10812;DHT22;5458;51.496;7.334;2023-04-25T04:44:46;8.30;99.90
10812;DHT22;5458;51.496;7.334;2023-04-25T04:47:12;8.20;99.90
10812;DHT22;5458;51.496;7.334;2023-04-25T04:49:39;8.30;99.90
10812;DHT22;5458;51.496;7.334;2023-04-25T04:52:05;8.20;99.90
10812;DHT22;5458;51.496;7.334;2023-04-25T04:54:30;8.30;99.90
10812;DHT22;5458;51.496;7.334;2023-04-25T04:56:56;8.20;99.90
10812;DHT22;5458;51.496;7.334;2023-04-25T04:59:22;8.30;99.90
10812;DHT22;5458;51.496;7.334;2023-04-25T05:01:47;8.40;99.90
10812;DHT22;5458;51.496;7.334;2023-04-25T05:04:13;8.40;99.90
10812;DHT22;5458;51.496;7.334;2023-04-25T05:06:39;8.50;99.90
10812;DHT22;5458;51.496;7.334;2023-04-25T05:09:04;8.50;99.90
10812;DHT22;5458;51.496;7.334;2023-04-25T05:11:30;8.50;99.90
10812;DHT22;5458;51.496;7.334;2023-04-25T05:13:55;8.60;99.90
10812;DHT22;5458;51.496;7.334;2023-04-25T05:16:21;8.60;99.90
10812;DHT22;5458;51.496;7.334;2023-04-25T05:18:47;8.60;99.90
10812;DHT22;5458;51.496;7.334;2023-04-25T05:21:13;8.60;99.90
10812;DHT22;5458;51.496;7.334;2023-04-25T05:23:38;8.70;99.90
10812;DHT22;5458;51.496;7.334;2023-04-25T05:26:04;8.80;99.90
10812;DHT22;5458;51.496;7.334;2023-04-25T05:28:29;8.80;99.90
10812;DHT22;5458;51.496;7.334;2023-04-25T05:30:55;8.80;99.90
10812;DHT22;5458;51.496;7.334;2023-04-25T05:33:21;8.90;99.90
10812;DHT22;5458;51.496;7.334;2023-04-25T05:35:46;9.00;99.90
10812;DHT22;5458;51.496;7.334;2023-04-25T05:38:12;9.10;99.90
10812;DHT22;5458;51.496;7.334;2023-04-25T05:40:38;9.30;99.90
10812;DHT22;5458;51.496;7.334;2023-04-25T05:43:03;9.40;99.90
10812;DHT22;5458;51.496;7.334;2023-04-25T05:45:29;9.50;99.90
10812;DHT22;5458;51.496;7.334;2023-04-25T05:47:55;9.50;99.90
10812;DHT22;5458;51.496;7.334;2023-04-25T05:50:20;9.50;99.90
10812;DHT22;5458;51.496;7.334;2023-04-25T05:52:46;9.40;99.90
10812;DHT22;5458;51.496;7.334;2023-04-25T05:55:12;9.40;99.90
10812;DHT22;5458;51.496;7.334;2023-04-25T05:57:37;9.40;99.90
10812;DHT22;5458;51.496;7.334;2023-04-25T06:00:07;9.50;99.90
10812;DHT22;5458;51.496;7.334;2023-04-25T06:02:34;9.60;99.90
10812;DHT22;5458;51.496;7.334;2023-04-25T06:05:00;9.70;99.90
10812;DHT22;5458;51.496;7.334;2023-04-25T06:07:29;9.90;99.90
10812;DHT22;5458;51.496;7.334;2023-04-25T06:09:55;10.10;99.90
10812;DHT22;5458;51.496;7.334;2023-04-25T06:12:20;10.30;99.90
10812;DHT22;5458;51.496;7.334;2023-04-25T06:14:46;10.60;99.90
10812;DHT22;5458;51.496;7.334;2023-04-25T06:17:12;10.90;99.90
10812;DHT22;5458;51.496;7.334;2023-04-25T06:19:37;11.10;99.90
10812;DHT22;5458;51.496;7.334;2023-04-25T06:22:03;11.10;99.90
10812;DHT22;5458;51.496;7.334;2023-04-25T06:24:28;11.20;99.90
10812;DHT22;5458;51.496;7.334;2023-04-25T06:26:54;11.40;99.90
10812;DHT22;5458;51.496;7.334;2023-04-25T06:29:20;11.60;99.90
10812;DHT22;5458;51.496;7.334;2023-04-25T06:31:46;11.80;99.90
10812;DHT22;5458;51.496;7.334;2023-04-25T06:34:12;12.10;99.90
10812;DHT22;5458;51.496;7.334;2023-04-25T06:36:37;12.10;99.90
10812;DHT22;5458;51.496;7.334;2023-04-25T06:39:03;12.20;99.90
10812;DHT22;5458;51.496;7.334;2023-04-25T06:41:28;12.50;99.90
10812;DHT22;5458;51.496;7.334;2023-04-25T06:43:54;12.60;99.90
10812;DHT22;5458;51.496;7.334;2023-04-25T06:46:20;13.40;99.90
10812;DHT22;5458;51.496;7.334;2023-04-25T06:48:45;15.30;99.90
10812;DHT22;5458;51.496;7.334;2023-04-25T06:51:11;17.40;96.20
10812;DHT22;5458;51.496;7.334;2023-04-25T06:53:38;18.00;94.50
10812;DHT22;5458;51.496;7.334;2023-04-25T06:56:04;18.10;92.60
10812;DHT22;5458;51.496;7.334;2023-04-25T06:58:30;18.10;92.40
10812;DHT22;5458;51.496;7.334;2023-04-25T07:00:55;19.80;91.40
10812;DHT22;5458;51.496;7.334;2023-04-25T07:03:21;21.90;82.60
10812;DHT22;5458;51.496;7.334;2023-04-25T07:05:47;22.60;78.80
10812;DHT22;5458;51.496;7.334;2023-04-25T07:08:12;23.00;74.10
10812;DHT22;5458;51.496;7.334;2023-04-25T07:10:38;23.30;70.10
10812;DHT22;5458;51.496;7.334;2023-04-25T07:13:03;23.20;66.60
10812;DHT22;5458;51.496;7.334;2023-04-25T07:15:29;22.70;68.10
10812;DHT22;5458;51.496;7.334;2023-04-25T07:17:54;22.20;66.20
10812;DHT22;5458;51.496;7.334;2023-04-25T07:20:20;21.50;67.10
10812;DHT22;5458;51.496;7.334;2023-04-25T07:22:46;20.40;69.70
10812;DHT22;5458;51.496;7.334;2023-04-25T07:25:12;19.10;72.60
10812;DHT22;5458;51.496;7.334;2023-04-25T07:27:37;17.80;73.70
10812;DHT22;5458;51.496;7.334;2023-04-25T07:30:04;16.50;78.50
10812;DHT22;5458;51.496;7.334;2023-04-25T07:32:29;15.40;82.90
10812;DHT22;5458;51.496;7.334;2023-04-25T07:34:55;15.40;88.10
10812;DHT22;5458;51.496;7.334;2023-04-25T07:37:21;17.60;84.90
10812;DHT22;5458;51.496;7.334;2023-04-25T07:39:46;18.90;81.40
10812;DHT22;5458;51.496;7.334;2023-04-25T07:42:12;20.00;76.30
10812;DHT22;5458;51.496;7.334;2023-04-25T07:44:38;20.10;72.70
10812;DHT22;5458;51.496;7.334;2023-04-25T07:47:09;19.40;73.90
10812;DHT22;5458;51.496;7.334;2023-04-25T07:49:38;17.90;75.20
10812;DHT22;5458;51.496;7.334;2023-04-25T07:52:04;16.50;78.80
10812;DHT22;5458;51.496;7.334;2023-04-25T07:54:33;15.50;82.20
10812;DHT22;5458;51.496;7.334;2023-04-25T07:56:58;14.90;86.00
10812;DHT22;5458;51.496;7.334;2023-04-25T07:59:25;14.50;87.60
10812;DHT22;5458;51.496;7.334;2023-04-25T08:01:50;14.50;89.20
10812;DHT22;5458;51.496;7.334;2023-04-25T08:04:16;14.60;86.70
10812;DHT22;5458;51.496;7.334;2023-04-25T08:06:42;14.60;87.70
10812;DHT22;5458;51.496;7.334;2023-04-25T08:09:08;15.10;89.20
10812;DHT22;5458;51.496;7.334;2023-04-25T08:11:37;16.20;87.70
10812;DHT22;5458;51.496;7.334;2023-04-25T08:14:02;17.20;84.10
10812;DHT22;5458;51.496;7.334;2023-04-25T08:16:28;17.60;80.80
10812;DHT22;5458;51.496;7.334;2023-04-25T08:18:54;17.10;77.90
10812;DHT22;5458;51.496;7.334;2023-04-25T08:21:20;16.50;78.70
10812;DHT22;5458;51.496;7.334;2023-04-25T08:23:45;16.10;78.40
10812;DHT22;5458;51.496;7.334;2023-04-25T08:26:11;16.20;79.20
10812;DHT22;5458;51.496;7.334;2023-04-25T08:28:37;16.40;76.70
10812;DHT22;5458;51.496;7.334;2023-04-25T08:31:02;16.70;77.90
10812;DHT22;5458;51.496;7.334;2023-04-25T08:33:28;17.30;71.80
10812;DHT22;5458;51.496;7.334;2023-04-25T08:35:54;17.60;74.10
10812;DHT22;5458;51.496;7.334;2023-04-25T08:38:20;17.70;75.20
10812;DHT22;5458;51.496;7.334;2023-04-25T08:40:51;17.90;74.50
10812;DHT22;5458;51.496;7.334;2023-04-25T08:43:19;17.90;73.60
10812;DHT22;5458;51.496;7.334;2023-04-25T08:45:45;17.40;70.40
10812;DHT22;5458;51.496;7.334;2023-04-25T08:48:13;16.80;72.00
10812;DHT22;5458;51.496;7.334;2023-04-25T08:50:59;16.40;73.30
10812;DHT22;5458;51.496;7.334;2023-04-25T08:53:28;16.30;74.20
10812;DHT22;5458;51.496;7.334;2023-04-25T08:55:55;15.90;75.50
10812;DHT22;5458;51.496;7.334;2023-04-25T08:58:21;15.70;75.50
10812;DHT22;5458;51.496;7.334;2023-04-25T09:00:47;15.70;76.10
10812;DHT22;5458;51.496;7.334;2023-04-25T09:03:13;15.70;77.80
10812;DHT22;5458;51.496;7.334;2023-04-25T09:05:40;16.10;78.50
10812;DHT22;5458;51.496;7.334;2023-04-25T09:08:06;16.20;73.10
10812;DHT22;5458;51.496;7.334;2023-04-25T09:10:33;16.00;72.80
10812;DHT22;5458;51.496;7.334;2023-04-25T09:13:09;16.00;74.10
10812;DHT22;5458;51.496;7.334;2023-04-25T09:15:53;16.20;74.80
10812;DHT22;5458;51.496;7.334;2023-04-25T09:18:26;16.30;73.70
10812;DHT22;5458;51.496;7.334;2023-04-25T09:20:58;16.00;72.20
10812;DHT22;5458;51.496;7.334;2023-04-25T09:23:29;15.60;74.40
10812;DHT22;5458;51.496;7.334;2023-04-25T09:25:55;15.50;73.70
10812;DHT22;5458;51.496;7.334;2023-04-25T09:28:25;15.50;73.90
10812;DHT22;5458;51.496;7.334;2023-04-25T09:30:55;15.80;75.40
10812;DHT22;5458;51.496;7.334;2023-04-25T09:33:30;15.90;73.60
10812;DHT22;5458;51.496;7.334;2023-04-25T09:36:07;16.10;72.50
10812;DHT22;5458;51.496;7.334;2023-04-25T09:38:41;15.60;71.70
10812;DHT22;5458;51.496;7.334;2023-04-25T09:41:08;15.20;72.20
10812;DHT22;5458;51.496;7.334;2023-04-25T09:43:34;14.80;73.00
10812;DHT22;5458;51.496;7.334;2023-04-25T09:46:00;14.50;73.60
10812;DHT22;5458;51.496;7.334;2023-04-25T09:48:27;14.30;75.70
10812;DHT22;5458;51.496;7.334;2023-04-25T09:51:12;14.00;78.00
10812;DHT22;5458;51.496;7.334;2023-04-25T09:53:46;13.70;78.10
10812;DHT22;5458;51.496;7.334;2023-04-25T09:56:12;13.40;78.50
10812;DHT22;5458;51.496;7.334;2023-04-25T09:58:39;13.40;79.10
10812;DHT22;5458;51.496;7.334;2023-04-25T10:01:07;13.40;74.60
10812;DHT22;5458;51.496;7.334;2023-04-25T10:03:34;13.50;75.20
10812;DHT22;5458;51.496;7.334;2023-04-25T10:06:02;13.80;73.70
10812;DHT22;5458;51.496;7.334;2023-04-25T10:08:33;13.90;70.30
10812;DHT22;5458;51.496;7.334;2023-04-25T10:11:01;14.20;69.80
10812;DHT22;5458;51.496;7.334;2023-04-25T10:13:28;14.50;70.70
10812;DHT22;5458;51.496;7.334;2023-04-25T10:15:54;14.50;68.60
10812;DHT22;5458;51.496;7.334;2023-04-25T10:18:20;14.60;71.70
10812;DHT22;5458;51.496;7.334;2023-04-25T10:20:46;14.60;70.70
10812;DHT22;5458;51.496;7.334;2023-04-25T10:23:15;14.80;69.70
10812;DHT22;5458;51.496;7.334;2023-04-25T10:25:42;15.00;69.20
10812;DHT22;5458;51.496;7.334;2023-04-25T10:28:08;14.90;66.50
10812;DHT22;5458;51.496;7.334;2023-04-25T10:30:33;14.80;66.60
10812;DHT22;5458;51.496;7.334;2023-04-25T10:32:59;14.50;67.70
10812;DHT22;5458;51.496;7.334;2023-04-25T10:35:26;14.30;69.30
10812;DHT22;5458;51.496;7.334;2023-04-25T10:38:05;14.10;69.60
10812;DHT22;5458;51.496;7.334;2023-04-25T10:40:31;14.10;72.10
10812;DHT22;5458;51.496;7.334;2023-04-25T10:43:36;14.20;70.20
10812;DHT22;5458;51.496;7.334;2023-04-25T10:46:18;14.20;72.10
10812;DHT22;5458;51.496;7.334;2023-04-25T10:48:50;14.20;70.10
10812;DHT22;5458;51.496;7.334;2023-04-25T10:51:33;14.10;68.80
10812;DHT22;5458;51.496;7.334;2023-04-25T10:54:04;13.70;68.70
10812;DHT22;5458;51.496;7.334;2023-04-25T10:56:33;13.40;71.40
10812;DHT22;5458;51.496;7.334;2023-04-25T10:59:11;13.30;72.80
10812;DHT22;5458;51.496;7.334;2023-04-25T11:01:39;13.20;75.50
10812;DHT22;5458;51.496;7.334;2023-04-25T11:04:05;13.10;73.30
10812;DHT22;5458;51.496;7.334;2023-04-25T11:06:50;13.00;73.20
10812;DHT22;5458;51.496;7.334;2023-04-25T11:09:17;12.90;76.00
10812;DHT22;5458;51.496;7.334;2023-04-25T11:11:43;12.70;76.80
10812;DHT22;5458;51.496;7.334;2023-04-25T11:14:20;12.50;77.50
10812;DHT22;5458;51.496;7.334;2023-04-25T11:16:45;12.40;78.50
10812;DHT22;5458;51.496;7.334;2023-04-25T11:19:11;12.30;78.90
10812;DHT22;5458;51.496;7.334;2023-04-25T11:21:37;12.30;80.30
10812;DHT22;5458;51.496;7.334;2023-04-25T11:24:02;12.30;82.10
10812;DHT22;5458;51.496;7.334;2023-04-25T11:26:30;12.20;81.90
10812;DHT22;5458;51.496;7.334;2023-04-25T11:28:59;12.20;84.10
10812;DHT22;5458;51.496;7.334;2023-04-25T11:31:29;12.10;83.80
10812;DHT22;5458;51.496;7.334;2023-04-25T11:33:57;12.00;83.00
10812;DHT22;5458;51.496;7.334;2023-04-25T11:36:23;12.00;84.90
10812;DHT22;5458;51.496;7.334;2023-04-25T11:38:51;12.10;85.80
10812;DHT22;5458;51.496;7.334;2023-04-25T11:41:17;12.20;84.90
10812;DHT22;5458;51.496;7.334;2023-04-25T11:43:43;12.30;84.20
10812;DHT22;5458;51.496;7.334;2023-04-25T11:46:09;12.50;82.50
10812;DHT22;5458;51.496;7.334;2023-04-25T11:48:42;12.60;83.00
10812;DHT22;5458;51.496;7.334;2023-04-25T11:51:08;13.00;83.20
10812;DHT22;5458;51.496;7.334;2023-04-25T11:53:34;13.30;84.00
10812;DHT22;5458;51.496;7.334;2023-04-25T11:56:01;13.60;84.00
10812;DHT22;5458;51.496;7.334;2023-04-25T11:58:27;13.90;81.40
10812;DHT22;5458;51.496;7.334;2023-04-25T12:00:53;14.00;79.50
10812;DHT22;5458;51.496;7.334;2023-04-25T12:03:18;14.00;74.50
10812;DHT22;5458;51.496;7.334;2023-04-25T12:05:45;14.00;73.00
10812;DHT22;5458;51.496;7.334;2023-04-25T12:08:15;13.70;65.30
10812;DHT22;5458;51.496;7.334;2023-04-25T12:10:43;13.60;66.20
10812;DHT22;5458;51.496;7.334;2023-04-25T12:13:26;13.40;66.40
10812;DHT22;5458;51.496;7.334;2023-04-25T12:15:56;13.40;70.10
10812;DHT22;5458;51.496;7.334;2023-04-25T12:18:24;13.50;70.10
10812;DHT22;5458;51.496;7.334;2023-04-25T12:20:53;13.50;69.00
10812;DHT22;5458;51.496;7.334;2023-04-25T12:23:25;13.50;67.60
10812;DHT22;5458;51.496;7.334;2023-04-25T12:25:51;13.40;68.20
10812;DHT22;5458;51.496;7.334;2023-04-25T12:28:23;13.40;67.00
10812;DHT22;5458;51.496;7.334;2023-04-25T12:30:53;13.50;71.50
10812;DHT22;5458;51.496;7.334;2023-04-25T12:33:18;13.60;70.40
10812;DHT22;5458;51.496;7.334;2023-04-25T12:35:44;13.70;70.50
10812;DHT22;5458;51.496;7.334;2023-04-25T12:38:10;13.60;70.10
10812;DHT22;5458;51.496;7.334;2023-04-25T12:40:36;13.60;72.60
10812;DHT22;5458;51.496;7.334;2023-04-25T12:43:01;13.50;71.20
10812;DHT22;5458;51.496;7.334;2023-04-25T12:45:27;13.50;71.40
10812;DHT22;5458;51.496;7.334;2023-04-25T12:47:53;13.50;69.10
10812;DHT22;5458;51.496;7.334;2023-04-25T12:50:18;13.40;70.20
10812;DHT22;5458;51.496;7.334;2023-04-25T12:52:44;13.40;70.70
10812;DHT22;5458;51.496;7.334;2023-04-25T12:55:09;13.40;71.10
10812;DHT22;5458;51.496;7.334;2023-04-25T12:57:35;13.30;71.40
10812;DHT22;5458;51.496;7.334;2023-04-25T13:00:01;13.30;70.00
10812;DHT22;5458;51.496;7.334;2023-04-25T13:05:02;13.30;71.10
10812;DHT22;5458;51.496;7.334;2023-04-25T13:07:28;13.30;70.70
10812;DHT22;5458;51.496;7.334;2023-04-25T13:09:54;13.30;70.10
10812;DHT22;5458;51.496;7.334;2023-04-25T13:12:21;13.30;70.40
10812;DHT22;5458;51.496;7.334;2023-04-25T13:14:46;13.30;69.90
10812;DHT22;5458;51.496;7.334;2023-04-25T13:17:12;13.20;68.80
10812;DHT22;5458;51.496;7.334;2023-04-25T13:19:37;13.20;68.50
10812;DHT22;5458;51.496;7.334;2023-04-25T13:22:04;13.00;68.30
10812;DHT22;5458;51.496;7.334;2023-04-25T13:24:29;12.80;68.80
10812;DHT22;5458;51.496;7.334;2023-04-25T13:26:55;12.70;68.70
10812;DHT22;5458;51.496;7.334;2023-04-25T13:29:21;12.60;71.10
10812;DHT22;5458;51.496;7.334;2023-04-25T13:31:46;12.60;71.60
10812;DHT22;5458;51.496;7.334;2023-04-25T13:34:12;12.80;73.50
10812;DHT22;5458;51.496;7.334;2023-04-25T13:36:38;12.80;71.70
10812;DHT22;5458;51.496;7.334;2023-04-25T13:39:03;12.60;71.20
10812;DHT22;5458;51.496;7.334;2023-04-25T13:41:30;12.50;71.10
10812;DHT22;5458;51.496;7.334;2023-04-25T13:43:55;12.30;71.80
10812;DHT22;5458;51.496;7.334;2023-04-25T13:46:21;12.30;73.80
10812;DHT22;5458;51.496;7.334;2023-04-25T13:48:47;12.40;73.80
10812;DHT22;5458;51.496;7.334;2023-04-25T13:51:15;12.40;74.00
10812;DHT22;5458;51.496;7.334;2023-04-25T13:53:41;12.50;73.80
10812;DHT22;5458;51.496;7.334;2023-04-25T13:56:07;12.30;75.50
10812;DHT22;5458;51.496;7.334;2023-04-25T13:58:32;12.30;75.80
10812;DHT22;5458;51.496;7.334;2023-04-25T14:00:58;12.40;76.60
10812;DHT22;5458;51.496;7.334;2023-04-25T14:03:24;12.40;77.60
10812;DHT22;5458;51.496;7.334;2023-04-25T14:05:50;12.50;77.60
10812;DHT22;5458;51.496;7.334;2023-04-25T14:08:16;12.70;77.90
10812;DHT22;5458;51.496;7.334;2023-04-25T14:10:41;12.90;78.60
10812;DHT22;5458;51.496;7.334;2023-04-25T14:13:07;13.00;77.40
10812;DHT22;5458;51.496;7.334;2023-04-25T14:15:33;13.30;78.20
10812;DHT22;5458;51.496;7.334;2023-04-25T14:17:59;13.50;76.60
10812;DHT22;5458;51.496;7.334;2023-04-25T14:20:25;13.80;77.30
10812;DHT22;5458;51.496;7.334;2023-04-25T14:22:52;14.00;75.40
10812;DHT22;5458;51.496;7.334;2023-04-25T14:25:19;14.20;75.90
10812;DHT22;5458;51.496;7.334;2023-04-25T14:27:45;14.20;74.40
10812;DHT22;5458;51.496;7.334;2023-04-25T14:30:15;14.10;71.20
10812;DHT22;5458;51.496;7.334;2023-04-25T14:32:41;13.90;72.40
10812;DHT22;5458;51.496;7.334;2023-04-25T14:35:07;13.90;73.80
10812;DHT22;5458;51.496;7.334;2023-04-25T14:37:33;14.10;73.60
10812;DHT22;5458;51.496;7.334;2023-04-25T14:39:58;14.00;71.70
10812;DHT22;5458;51.496;7.334;2023-04-25T14:42:24;13.90;71.10
10812;DHT22;5458;51.496;7.334;2023-04-25T14:44:49;13.70;70.40
10812;DHT22;5458;51.496;7.334;2023-04-25T14:47:15;13.60;72.30
10812;DHT22;5458;51.496;7.334;2023-04-25T14:49:41;13.50;71.50
10812;DHT22;5458;51.496;7.334;2023-04-25T14:52:07;13.60;71.20
10812;DHT22;5458;51.496;7.334;2023-04-25T14:54:33;13.80;70.40
10812;DHT22;5458;51.496;7.334;2023-04-25T14:56:58;13.90;69.00
10812;DHT22;5458;51.496;7.334;2023-04-25T14:59:24;14.00;68.20
10812;DHT22;5458;51.496;7.334;2023-04-25T15:01:50;13.90;66.80
10812;DHT22;5458;51.496;7.334;2023-04-25T15:04:16;13.80;67.70
10812;DHT22;5458;51.496;7.334;2023-04-25T15:06:42;13.70;67.00
10812;DHT22;5458;51.496;7.334;2023-04-25T15:09:08;13.60;67.70
10812;DHT22;5458;51.496;7.334;2023-04-25T15:11:36;13.50;68.50
10812;DHT22;5458;51.496;7.334;2023-04-25T15:14:01;13.30;71.10
10812;DHT22;5458;51.496;7.334;2023-04-25T15:16:27;13.00;71.80
10812;DHT22;5458;51.496;7.334;2023-04-25T15:18:52;12.70;74.70
10812;DHT22;5458;51.496;7.334;2023-04-25T15:21:18;12.60;75.80
10812;DHT22;5458;51.496;7.334;2023-04-25T15:23:44;12.60;76.30
10812;DHT22;5458;51.496;7.334;2023-04-25T15:26:09;12.70;77.20
10812;DHT22;5458;51.496;7.334;2023-04-25T15:28:36;12.70;77.60
10812;DHT22;5458;51.496;7.334;2023-04-25T15:31:01;12.70;77.50
10812;DHT22;5458;51.496;7.334;2023-04-25T15:33:27;12.60;77.60
10812;DHT22;5458;51.496;7.334;2023-04-25T15:35:52;12.60;77.30
10812;DHT22;5458;51.496;7.334;2023-04-25T15:38:18;12.60;77.80
10812;DHT22;5458;51.496;7.334;2023-04-25T15:40:44;12.60;78.40
10812;DHT22;5458;51.496;7.334;2023-04-25T15:43:10;12.70;79.10
10812;DHT22;5458;51.496;7.334;2023-04-25T15:45:40;12.70;78.30
10812;DHT22;5458;51.496;7.334;2023-04-25T15:48:05;12.70;76.10
10812;DHT22;5458;51.496;7.334;2023-04-25T15:50:31;12.70;75.80
10812;DHT22;5458;51.496;7.334;2023-04-25T15:52:57;12.90;76.20